sensor_id;sensor_type;location;lat;lon;timestamp;temperature;humidity
37560;DHT22;23398;50.928;7.084;2022-07-10T00:00:30;17.50;57.10
37560;DHT22;23398;50.928;7.084;2022-07-10T00:02:57;17.40;57.10
37560;DHT22;23398;50.928;7.084;2022-07-10T00:05:23;17.50;57.30
37560;DHT22;23398;50.928;7.084;2022-07-10T00:07:49;17.30;57.30
37560;DHT22;23398;50.928;7.084;2022-07-10T00:10:19;17.30;57.60
37560;DHT22;23398;50.928;7.084;2022-07-10T00:12:46;17.30;58.30
37560;DHT22;23398;50.928;7.084;2022-07-10T00:15:12;17.20;57.70
37560;DHT22;23398;50.928;7.084;2022-07-10T00:17:38;17.20;57.90
37560;DHT22;23398;50.928;7.084;2022-07-10T00:20:05;17.20;58.50
37560;DHT22;23398;50.928;7.084;2022-07-10T00:22:33;17.10;58.00
37560;DHT22;23398;50.928;7.084;2022-07-10T00:25:01;17.00;58.00
37560;DHT22;23398;50.928;7.084;2022-07-10T00:27:26;17.00;58.10
37560;DHT22;23398;50.928;7.084;2022-07-10T00:29:52;17.00;58.50
37560;DHT22;23398;50.928;7.084;2022-07-10T00:32:17;16.90;58.30
37560;DHT22;23398;50.928;7.084;2022-07-10T00:34:43;16.90;58.40
37560;DHT22;23398;50.928;7.084;2022-07-10T00:37:09;16.90;58.60
37560;DHT22;23398;50.928;7.084;2022-07-10T00:39:34;16.80;58.50
37560;DHT22;23398;50.928;7.084;2022-07-10T00:42:11;16.80;58.60
37560;DHT22;23398;50.928;7.084;2022-07-10T00:44:37;16.70;59.20
37560;DHT22;23398;50.928;7.084;2022-07-10T00:47:07;16.60;58.70
37560;DHT22;23398;50.928;7.084;2022-07-10T00:49:35;16.60;59.00
37560;DHT22;23398;50.928;7.084;2022-07-10T00:52:04;16.50;58.90
37560;DHT22;23398;50.928;7.084;2022-07-10T00:54:31;16.50;59.10
37560;DHT22;23398;50.928;7.084;2022-07-10T00:56:58;16.40;59.20
37560;DHT22;23398;50.928;7.084;2022-07-10T00:59:25;16.40;59.30
37560;DHT22;23398;50.928;7.084;2022-07-10T01:01:51;16.30;59.40
37560;DHT22;23398;50.928;7.084;2022-07-10T01:04:17;16.20;59.60
37560;DHT22;23398;50.928;7.084;2022-07-10T01:06:43;16.20;59.70
37560;DHT22;23398;50.928;7.084;2022-07-10T01:09:09;16.10;59.80
37560;DHT22;23398;50.928;7.084;2022-07-10T01:11:35;16.20;60.00
37560;DHT22;23398;50.928;7.084;2022-07-10T01:14:02;16.00;59.90
37560;DHT22;23398;50.928;7.084;2022-07-10T01:16:28;16.10;60.20
37560;DHT22;23398;50.928;7.084;2022-07-10T01:18:55;15.90;60.40
37560;DHT22;23398;50.928;7.084;2022-07-10T01:21:25;15.80;60.50
37560;DHT22;23398;50.928;7.084;2022-07-10T01:23:51;15.80;60.90
37560;DHT22;23398;50.928;7.084;2022-07-10T01:26:17;15.80;60.80
37560;DHT22;23398;50.928;7.084;2022-07-10T01:28:43;15.90;61.20
37560;DHT22;23398;50.928;7.084;2022-07-10T01:31:09;16.20;61.70
37560;DHT22;23398;50.928;7.084;2022-07-10T01:33:34;15.70;61.20
37560;DHT22;23398;50.928;7.084;2022-07-10T01:36:00;15.70;61.30
37560;DHT22;23398;50.928;7.084;2022-07-10T01:38:25;15.70;61.30
37560;DHT22;23398;50.928;7.084;2022-07-10T01:40:51;15.70;61.40
37560;DHT22;23398;50.928;7.084;2022-07-10T01:43:16;15.70;61.60
37560;DHT22;23398;50.928;7.084;2022-07-10T01:45:42;15.60;61.60
37560;DHT22;23398;50.928;7.084;2022-07-10T01:48:08;15.60;62.50
37560;DHT22;23398;50.928;7.084;2022-07-10T01:50:34;15.60;61.90
37560;DHT22;23398;50.928;7.084;2022-07-10T01:53:00;15.60;62.00
37560;DHT22;23398;50.928;7.084;2022-07-10T01:55:25;15.50;62.10
37560;DHT22;23398;50.928;7.084;2022-07-10T01:57:51;15.60;62.30
37560;DHT22;23398;50.928;7.084;2022-07-10T02:00:16;15.50;62.30
37560;DHT22;23398;50.928;7.084;2022-07-10T02:02:42;15.50;62.20
37560;DHT22;23398;50.928;7.084;2022-07-10T02:05:28;15.40;62.10
37560;DHT22;23398;50.928;7.084;2022-07-10T02:07:53;15.40;62.10
37560;DHT22;23398;50.928;7.084;2022-07-10T02:10:19;15.40;62.40
37560;DHT22;23398;50.928;7.084;2022-07-10T02:12:45;15.30;62.60
37560;DHT22;23398;50.928;7.084;2022-07-10T02:15:10;15.30;62.60
37560;DHT22;23398;50.928;7.084;2022-07-10T02:17:36;15.30;62.80
37560;DHT22;23398;50.928;7.084;2022-07-10T02:20:02;15.50;63.30
37560;DHT22;23398;50.928;7.084;2022-07-10T02:22:27;15.30;62.90
37560;DHT22;23398;50.928;7.084;2022-07-10T02:24:53;15.30;63.00
37560;DHT22;23398;50.928;7.084;2022-07-10T02:27:18;15.30;63.30
37560;DHT22;23398;50.928;7.084;2022-07-10T02:29:44;15.30;63.80
37560;DHT22;23398;50.928;7.084;2022-07-10T02:32:10;15.30;64.20
37560;DHT22;23398;50.928;7.084;2022-07-10T02:34:36;15.40;64.60
37560;DHT22;23398;50.928;7.084;2022-07-10T02:37:02;15.50;64.80
37560;DHT22;23398;50.928;7.084;2022-07-10T02:39:27;15.50;64.90
37560;DHT22;23398;50.928;7.084;2022-07-10T02:41:53;15.70;65.00
37560;DHT22;23398;50.928;7.084;2022-07-10T02:44:18;15.60;64.80
37560;DHT22;23398;50.928;7.084;2022-07-10T02:46:44;16.00;65.20
37560;DHT22;23398;50.928;7.084;2022-07-10T02:49:09;15.80;64.90
37560;DHT22;23398;50.928;7.084;2022-07-10T02:51:35;15.80;64.70
37560;DHT22;23398;50.928;7.084;2022-07-10T02:54:00;15.90;64.60
37560;DHT22;23398;50.928;7.084;2022-07-10T02:56:26;15.90;64.30
37560;DHT22;23398;50.928;7.084;2022-07-10T02:58:52;16.00;64.10
37560;DHT22;23398;50.928;7.084;2022-07-10T03:01:17;15.90;64.00
37560;DHT22;23398;50.928;7.084;2022-07-10T03:03:43;15.90;64.00
37560;DHT22;23398;50.928;7.084;2022-07-10T03:06:08;15.90;63.80
37560;DHT22;23398;50.928;7.084;2022-07-10T03:08:34;15.90;63.70
37560;DHT22;23398;50.928;7.084;2022-07-10T03:10:59;15.80;63.80
37560;DHT22;23398;50.928;7.084;2022-07-10T03:13:25;15.80;64.00
37560;DHT22;23398;50.928;7.084;2022-07-10T03:15:53;15.80;64.20
37560;DHT22;23398;50.928;7.084;2022-07-10T03:18:20;15.70;64.60
37560;DHT22;23398;50.928;7.084;2022-07-10T03:20:45;15.70;64.90
37560;DHT22;23398;50.928;7.084;2022-07-10T03:23:11;15.70;65.10
37560;DHT22;23398;50.928;7.084;2022-07-10T03:25:36;15.90;65.50
37560;DHT22;23398;50.928;7.084;2022-07-10T03:28:02;15.70;65.40
37560;DHT22;23398;50.928;7.084;2022-07-10T03:30:27;15.70;65.60
37560;DHT22;23398;50.928;7.084;2022-07-10T03:32:53;15.80;65.80
37560;DHT22;23398;50.928;7.084;2022-07-10T03:35:18;15.80;65.70
37560;DHT22;23398;50.928;7.084;2022-07-10T03:37:44;15.80;65.70
37560;DHT22;23398;50.928;7.084;2022-07-10T03:40:10;15.80;65.70
37560;DHT22;23398;50.928;7.084;2022-07-10T03:42:35;15.90;66.10
37560;DHT22;23398;50.928;7.084;2022-07-10T03:45:01;15.90;66.40
37560;DHT22;23398;50.928;7.084;2022-07-10T03:47:27;15.90;66.50
37560;DHT22;23398;50.928;7.084;2022-07-10T03:49:52;15.90;66.70
37560;DHT22;23398;50.928;7.084;2022-07-10T03:52:18;16.00;66.70
37560;DHT22;23398;50.928;7.084;2022-07-10T03:54:43;16.00;66.90
37560;DHT22;23398;50.928;7.084;2022-07-10T03:57:09;16.00;67.00
37560;DHT22;23398;50.928;7.084;2022-07-10T03:59:53;16.10;66.90
37560;DHT22;23398;50.928;7.084;2022-07-10T04:02:19;16.10;66.90
37560;DHT22;23398;50.928;7.084;2022-07-10T04:04:44;16.10;67.10
37560;DHT22;23398;50.928;7.084;2022-07-10T04:07:10;16.20;67.20
37560;DHT22;23398;50.928;7.084;2022-07-10T04:09:37;16.60;67.60
37560;DHT22;23398;50.928;7.084;2022-07-10T04:12:03;16.20;67.10
37560;DHT22;23398;50.928;7.084;2022-07-10T04:14:29;16.20;67.10
37560;DHT22;23398;50.928;7.084;2022-07-10T04:16:55;16.60;67.50
37560;DHT22;23398;50.928;7.084;2022-07-10T04:19:20;16.60;67.40
37560;DHT22;23398;50.928;7.084;2022-07-10T04:21:47;16.40;67.10
37560;DHT22;23398;50.928;7.084;2022-07-10T04:24:12;16.30;66.80
37560;DHT22;23398;50.928;7.084;2022-07-10T04:26:38;16.70;67.20
37560;DHT22;23398;50.928;7.084;2022-07-10T04:29:04;16.40;66.90
37560;DHT22;23398;50.928;7.084;2022-07-10T04:31:29;16.40;66.80
37560;DHT22;23398;50.928;7.084;2022-07-10T04:33:55;16.40;66.90
37560;DHT22;23398;50.928;7.084;2022-07-10T04:36:23;16.40;67.00
37560;DHT22;23398;50.928;7.084;2022-07-10T04:38:48;16.50;67.20
37560;DHT22;23398;50.928;7.084;2022-07-10T04:41:14;16.50;67.30
37560;DHT22;23398;50.928;7.084;2022-07-10T04:43:39;16.50;67.60
37560;DHT22;23398;50.928;7.084;2022-07-10T04:46:05;16.50;67.90
37560;DHT22;23398;50.928;7.084;2022-07-10T04:48:32;16.50;67.90
37560;DHT22;23398;50.928;7.084;2022-07-10T04:50:58;16.60;68.00
37560;DHT22;23398;50.928;7.084;2022-07-10T04:53:23;16.60;68.00
37560;DHT22;23398;50.928;7.084;2022-07-10T04:55:49;16.70;68.10
37560;DHT22;23398;50.928;7.084;2022-07-10T04:58:15;16.70;68.00
37560;DHT22;23398;50.928;7.084;2022-07-10T05:00:40;16.80;68.00
37560;DHT22;23398;50.928;7.084;2022-07-10T05:03:06;16.90;67.80
37560;DHT22;23398;50.928;7.084;2022-07-10T05:05:32;16.90;67.80
37560;DHT22;23398;50.928;7.084;2022-07-10T05:07:57;17.00;67.80
37560;DHT22;23398;50.928;7.084;2022-07-10T05:10:24;17.10;68.00
37560;DHT22;23398;50.928;7.084;2022-07-10T05:12:50;17.20;68.30
37560;DHT22;23398;50.928;7.084;2022-07-10T05:15:15;17.40;68.20
37560;DHT22;23398;50.928;7.084;2022-07-10T05:17:41;17.60;68.10
37560;DHT22;23398;50.928;7.084;2022-07-10T05:20:07;17.80;67.70
37560;DHT22;23398;50.928;7.084;2022-07-10T05:22:32;18.00;67.50
37560;DHT22;23398;50.928;7.084;2022-07-10T05:24:58;18.10;67.10
37560;DHT22;23398;50.928;7.084;2022-07-10T05:27:24;18.30;66.60
37560;DHT22;23398;50.928;7.084;2022-07-10T05:29:50;18.50;66.30
37560;DHT22;23398;50.928;7.084;2022-07-10T05:32:16;18.70;66.00
37560;DHT22;23398;50.928;7.084;2022-07-10T05:34:42;18.80;65.40
37560;DHT22;23398;50.928;7.084;2022-07-10T05:37:07;19.00;65.00
37560;DHT22;23398;50.928;7.084;2022-07-10T05:39:33;19.20;64.70
37560;DHT22;23398;50.928;7.084;2022-07-10T05:41:59;19.20;63.90
37560;DHT22;23398;50.928;7.084;2022-07-10T05:44:25;19.30;63.60
37560;DHT22;23398;50.928;7.084;2022-07-10T05:46:50;19.40;63.80
37560;DHT22;23398;50.928;7.084;2022-07-10T05:49:16;19.50;63.60
37560;DHT22;23398;50.928;7.084;2022-07-10T05:51:42;19.60;63.60
37560;DHT22;23398;50.928;7.084;2022-07-10T05:54:08;19.70;63.60
37560;DHT22;23398;50.928;7.084;2022-07-10T05:56:34;19.90;63.80
37560;DHT22;23398;50.928;7.084;2022-07-10T05:58:59;20.10;63.10
37560;DHT22;23398;50.928;7.084;2022-07-10T06:01:25;20.30;62.90
37560;DHT22;23398;50.928;7.084;2022-07-10T06:03:54;20.50;62.40
37560;DHT22;23398;50.928;7.084;2022-07-10T06:06:19;20.60;61.50
37560;DHT22;23398;50.928;7.084;2022-07-10T06:08:45;20.80;61.00
37560;DHT22;23398;50.928;7.084;2022-07-10T06:11:11;20.90;60.70
37560;DHT22;23398;50.928;7.084;2022-07-10T06:13:38;21.10;60.10
37560;DHT22;23398;50.928;7.084;2022-07-10T06:16:04;21.20;59.70
37560;DHT22;23398;50.928;7.084;2022-07-10T06:18:33;21.30;59.10
37560;DHT22;23398;50.928;7.084;2022-07-10T06:20:59;21.50;58.60
37560;DHT22;23398;50.928;7.084;2022-07-10T06:23:24;21.60;57.80
37560;DHT22;23398;50.928;7.084;2022-07-10T06:25:50;21.70;57.70
37560;DHT22;23398;50.928;7.084;2022-07-10T06:28:16;21.80;57.40
37560;DHT22;23398;50.928;7.084;2022-07-10T06:30:42;21.90;57.10
37560;DHT22;23398;50.928;7.084;2022-07-10T06:33:08;21.90;56.70
37560;DHT22;23398;50.928;7.084;2022-07-10T06:35:34;21.90;56.70
37560;DHT22;23398;50.928;7.084;2022-07-10T06:37:59;21.90;56.70
37560;DHT22;23398;50.928;7.084;2022-07-10T06:40:26;21.90;56.40
37560;DHT22;23398;50.928;7.084;2022-07-10T06:42:53;22.00;56.30
37560;DHT22;23398;50.928;7.084;2022-07-10T06:45:19;22.00;56.20
37560;DHT22;23398;50.928;7.084;2022-07-10T06:47:45;22.00;56.10
37560;DHT22;23398;50.928;7.084;2022-07-10T06:50:28;22.00;56.00
37560;DHT22;23398;50.928;7.084;2022-07-10T06:52:58;22.10;55.80
37560;DHT22;23398;50.928;7.084;2022-07-10T06:55:24;22.10;55.80
37560;DHT22;23398;50.928;7.084;2022-07-10T06:57:50;22.20;56.30
37560;DHT22;23398;50.928;7.084;2022-07-10T07:00:16;22.50;56.50
37560;DHT22;23398;50.928;7.084;2022-07-10T07:02:42;22.60;56.00
37560;DHT22;23398;50.928;7.084;2022-07-10T07:05:08;22.90;55.30
37560;DHT22;23398;50.928;7.084;2022-07-10T07:07:34;23.00;55.40
37560;DHT22;23398;50.928;7.084;2022-07-10T07:10:01;23.30;55.80
37560;DHT22;23398;50.928;7.084;2022-07-10T07:12:27;23.70;55.40
37560;DHT22;23398;50.928;7.084;2022-07-10T07:14:53;24.30;54.60
37560;DHT22;23398;50.928;7.084;2022-07-10T07:17:18;24.80;53.70
37560;DHT22;23398;50.928;7.084;2022-07-10T07:19:48;25.10;52.80
37560;DHT22;23398;50.928;7.084;2022-07-10T07:22:32;25.50;51.90
37560;DHT22;23398;50.928;7.084;2022-07-10T07:25:17;25.90;50.50
37560;DHT22;23398;50.928;7.084;2022-07-10T07:27:42;26.10;49.80
37560;DHT22;23398;50.928;7.084;2022-07-10T07:30:11;26.20;49.00
37560;DHT22;23398;50.928;7.084;2022-07-10T07:32:38;26.20;48.40
37560;DHT22;23398;50.928;7.084;2022-07-10T07:35:04;26.10;47.90
37560;DHT22;23398;50.928;7.084;2022-07-10T07:37:44;26.00;47.80
37560;DHT22;23398;50.928;7.084;2022-07-10T07:40:12;25.80;47.40
37560;DHT22;23398;50.928;7.084;2022-07-10T07:42:39;25.70;47.80
37560;DHT22;23398;50.928;7.084;2022-07-10T07:45:05;25.50;47.70
37560;DHT22;23398;50.928;7.084;2022-07-10T07:47:41;25.20;47.80
37560;DHT22;23398;50.928;7.084;2022-07-10T07:50:08;25.00;47.70
37560;DHT22;23398;50.928;7.084;2022-07-10T07:52:33;24.70;47.70
37560;DHT22;23398;50.928;7.084;2022-07-10T07:55:00;24.50;47.80
37560;DHT22;23398;50.928;7.084;2022-07-10T07:57:26;24.60;48.30
37560;DHT22;23398;50.928;7.084;2022-07-10T07:59:52;24.10;48.50
37560;DHT22;23398;50.928;7.084;2022-07-10T08:02:17;24.00;48.90
37560;DHT22;23398;50.928;7.084;2022-07-10T08:04:43;23.80;49.00
37560;DHT22;23398;50.928;7.084;2022-07-10T08:07:08;23.80;49.40
37560;DHT22;23398;50.928;7.084;2022-07-10T08:09:34;23.80;49.60
37560;DHT22;23398;50.928;7.084;2022-07-10T08:12:00;23.80;49.50
37560;DHT22;23398;50.928;7.084;2022-07-10T08:14:26;23.80;49.80
37560;DHT22;23398;50.928;7.084;2022-07-10T08:16:51;23.80;49.80
37560;DHT22;23398;50.928;7.084;2022-07-10T08:19:17;23.90;49.60
37560;DHT22;23398;50.928;7.084;2022-07-10T08:21:43;23.90;49.60
37560;DHT22;23398;50.928;7.084;2022-07-10T08:24:09;23.90;49.30
37560;DHT22;23398;50.928;7.084;2022-07-10T08:26:34;23.90;49.60
37560;DHT22;23398;50.928;7.084;2022-07-10T08:29:00;23.90;50.20
37560;DHT22;23398;50.928;7.084;2022-07-10T08:31:25;23.90;50.40
37560;DHT22;23398;50.928;7.084;2022-07-10T08:33:51;24.00;50.70
37560;DHT22;23398;50.928;7.084;2022-07-10T08:36:18;24.20;50.60
37560;DHT22;23398;50.928;7.084;2022-07-10T08:38:43;24.40;50.10
37560;DHT22;23398;50.928;7.084;2022-07-10T08:41:11;24.60;50.00
37560;DHT22;23398;50.928;7.084;2022-07-10T08:43:38;24.70;49.50
37560;DHT22;23398;50.928;7.084;2022-07-10T08:46:05;24.80;49.30
37560;DHT22;23398;50.928;7.084;2022-07-10T08:48:32;24.80;49.20
37560;DHT22;23398;50.928;7.084;2022-07-10T08:51:04;24.80;48.90
37560;DHT22;23398;50.928;7.084;2022-07-10T08:53:31;24.70;48.80
37560;DHT22;23398;50.928;7.084;2022-07-10T08:55:59;24.80;49.10
37560;DHT22;23398;50.928;7.084;2022-07-10T08:58:29;24.80;49.20
37560;DHT22;23398;50.928;7.084;2022-07-10T09:00:58;24.80;49.60
37560;DHT22;23398;50.928;7.084;2022-07-10T09:03:23;24.80;49.40
37560;DHT22;23398;50.928;7.084;2022-07-10T09:05:49;24.80;49.30
37560;DHT22;23398;50.928;7.084;2022-07-10T09:08:27;24.90;49.20
37560;DHT22;23398;50.928;7.084;2022-07-10T09:11:14;24.90;49.10
37560;DHT22;23398;50.928;7.084;2022-07-10T09:13:50;24.90;49.30
37560;DHT22;23398;50.928;7.084;2022-07-10T09:16:33;24.90;49.20
37560;DHT22;23398;50.928;7.084;2022-07-10T09:19:20;24.90;49.20
37560;DHT22;23398;50.928;7.084;2022-07-10T09:21:47;24.90;49.20
37560;DHT22;23398;50.928;7.084;2022-07-10T09:24:14;24.80;49.20
37560;DHT22;23398;50.928;7.084;2022-07-10T09:26:40;24.80;49.50
37560;DHT22;23398;50.928;7.084;2022-07-10T09:29:10;24.80;49.90
37560;DHT22;23398;50.928;7.084;2022-07-10T09:32:08;24.70;50.20
37560;DHT22;23398;50.928;7.084;2022-07-10T09:34:37;24.80;50.60
37560;DHT22;23398;50.928;7.084;2022-07-10T09:37:21;24.90;50.90
37560;DHT22;23398;50.928;7.084;2022-07-10T09:39:52;25.00;50.80
37560;DHT22;23398;50.928;7.084;2022-07-10T09:42:44;25.20;50.60
37560;DHT22;23398;50.928;7.084;2022-07-10T09:47:39;25.60;50.00
37560;DHT22;23398;50.928;7.084;2022-07-10T09:50:19;25.70;49.60
37560;DHT22;23398;50.928;7.084;2022-07-10T09:52:46;25.70;49.10
37560;DHT22;23398;50.928;7.084;2022-07-10T09:55:14;25.70;49.60
37560;DHT22;23398;50.928;7.084;2022-07-10T09:57:42;25.80;49.40
37560;DHT22;23398;50.928;7.084;2022-07-10T10:00:10;25.70;49.60
37560;DHT22;23398;50.928;7.084;2022-07-10T10:02:38;25.70;49.20
37560;DHT22;23398;50.928;7.084;2022-07-10T10:05:04;25.70;49.00
37560;DHT22;23398;50.928;7.084;2022-07-10T10:07:31;25.60;48.70
37560;DHT22;23398;50.928;7.084;2022-07-10T10:10:00;25.50;48.70
37560;DHT22;23398;50.928;7.084;2022-07-10T10:12:42;25.40;48.70
37560;DHT22;23398;50.928;7.084;2022-07-10T10:15:11;25.30;48.90
37560;DHT22;23398;50.928;7.084;2022-07-10T10:17:38;25.10;49.80
37560;DHT22;23398;50.928;7.084;2022-07-10T10:20:07;25.00;49.30
37560;DHT22;23398;50.928;7.084;2022-07-10T10:22:53;24.80;49.70
37560;DHT22;23398;50.928;7.084;2022-07-10T10:25:22;24.70;49.80
37560;DHT22;23398;50.928;7.084;2022-07-10T10:27:49;24.60;49.90
37560;DHT22;23398;50.928;7.084;2022-07-10T10:30:15;24.40;50.00
37560;DHT22;23398;50.928;7.084;2022-07-10T10:32:41;24.30;50.00
37560;DHT22;23398;50.928;7.084;2022-07-10T10:35:07;24.20;50.10
37560;DHT22;23398;50.928;7.084;2022-07-10T10:37:38;24.10;50.40
37560;DHT22;23398;50.928;7.084;2022-07-10T10:40:08;23.90;50.60
37560;DHT22;23398;50.928;7.084;2022-07-10T10:42:41;23.80;50.80
37560;DHT22;23398;50.928;7.084;2022-07-10T10:45:22;23.80;51.60
37560;DHT22;23398;50.928;7.084;2022-07-10T10:47:59;23.60;52.40
37560;DHT22;23398;50.928;7.084;2022-07-10T10:50:40;23.50;52.30
37560;DHT22;23398;50.928;7.084;2022-07-10T10:53:19;23.30;52.30
37560;DHT22;23398;50.928;7.084;2022-07-10T10:58:39;23.20;52.60
37560;DHT22;23398;50.928;7.084;2022-07-10T11:01:26;23.10;52.70
37560;DHT22;23398;50.928;7.084;2022-07-10T11:06:52;23.00;53.00
37560;DHT22;23398;50.928;7.084;2022-07-10T11:14:28;22.90;53.20
37560;DHT22;23398;50.928;7.084;2022-07-10T11:16:55;22.90;53.20
37560;DHT22;23398;50.928;7.084;2022-07-10T11:19:22;22.80;53.30
37560;DHT22;23398;50.928;7.084;2022-07-10T11:21:59;22.80;53.40
37560;DHT22;23398;50.928;7.084;2022-07-10T11:29:59;22.70;54.80
37560;DHT22;23398;50.928;7.084;2022-07-10T11:32:25;22.70;54.80
37560;DHT22;23398;50.928;7.084;2022-07-10T11:34:51;22.70;55.00
37560;DHT22;23398;50.928;7.084;2022-07-10T11:37:17;22.70;54.80
37560;DHT22;23398;50.928;7.084;2022-07-10T11:39:43;22.80;54.80
37560;DHT22;23398;50.928;7.084;2022-07-10T11:42:09;22.90;54.70
37560;DHT22;23398;50.928;7.084;2022-07-10T11:44:34;22.80;54.40
37560;DHT22;23398;50.928;7.084;2022-07-10T11:47:00;22.90;54.20
37560;DHT22;23398;50.928;7.084;2022-07-10T11:49:28;22.90;54.30
37560;DHT22;23398;50.928;7.084;2022-07-10T11:51:54;23.00;54.70
37560;DHT22;23398;50.928;7.084;2022-07-10T11:54:25;22.90;54.50
37560;DHT22;23398;50.928;7.084;2022-07-10T11:56:53;22.90;54.70
37560;DHT22;23398;50.928;7.084;2022-07-10T11:59:27;22.80;54.60
37560;DHT22;23398;50.928;7.084;2022-07-10T12:01:55;22.80;55.00
37560;DHT22;23398;50.928;7.084;2022-07-10T12:04:22;22.80;54.80
37560;DHT22;23398;50.928;7.084;2022-07-10T12:06:51;22.70;54.90
37560;DHT22;23398;50.928;7.084;2022-07-10T12:09:19;22.70;55.40
37560;DHT22;23398;50.928;7.084;2022-07-10T12:12:01;22.60;55.40
37560;DHT22;23398;50.928;7.084;2022-07-10T12:14:28;22.60;56.00
37560;DHT22;23398;50.928;7.084;2022-07-10T12:16:55;22.60;55.80
37560;DHT22;23398;50.928;7.084;2022-07-10T12:19:29;22.70;56.40
37560;DHT22;23398;50.928;7.084;2022-07-10T12:21:59;22.70;56.50
37560;DHT22;23398;50.928;7.084;2022-07-10T12:24:26;22.80;56.20
37560;DHT22;23398;50.928;7.084;2022-07-10T12:26:52;22.90;56.50
37560;DHT22;23398;50.928;7.084;2022-07-10T12:29:26;22.90;56.90
37560;DHT22;23398;50.928;7.084;2022-07-10T12:31:53;23.00;57.60
37560;DHT22;23398;50.928;7.084;2022-07-10T12:34:41;23.00;57.90
37560;DHT22;23398;50.928;7.084;2022-07-10T12:37:13;23.00;58.60
37560;DHT22;23398;50.928;7.084;2022-07-10T12:39:52;22.80;57.60
37560;DHT22;23398;50.928;7.084;2022-07-10T12:42:29;22.70;58.40
37560;DHT22;23398;50.928;7.084;2022-07-10T12:45:06;22.70;58.70
37560;DHT22;23398;50.928;7.084;2022-07-10T12:47:46;22.70;59.50
37560;DHT22;23398;50.928;7.084;2022-07-10T12:50:13;22.60;59.80
37560;DHT22;23398;50.928;7.084;2022-07-10T12:52:39;22.60;59.60
37560;DHT22;23398;50.928;7.084;2022-07-10T12:55:13;22.70;60.30
37560;DHT22;23398;50.928;7.084;2022-07-10T12:57:53;22.40;60.40
37560;DHT22;23398;50.928;7.084;2022-07-10T13:00:31;22.30;60.60
37560;DHT22;23398;50.928;7.084;2022-07-10T13:03:02;22.30;60.60
37560;DHT22;23398;50.928;7.084;2022-07-10T13:05:31;22.30;60.10
37560;DHT22;23398;50.928;7.084;2022-07-10T13:08:24;22.40;61.00
37560;DHT22;23398;50.928;7.084;2022-07-10T13:10:51;22.50;61.50
37560;DHT22;23398;50.928;7.084;2022-07-10T13:13:17;22.70;61.50
37560;DHT22;23398;50.928;7.084;2022-07-10T13:15:44;22.90;61.10
37560;DHT22;23398;50.928;7.084;2022-07-10T13:18:20;23.10;60.30
37560;DHT22;23398;50.928;7.084;2022-07-10T13:20:48;23.40;59.80
37560;DHT22;23398;50.928;7.084;2022-07-10T13:23:14;23.60;59.50
37560;DHT22;23398;50.928;7.084;2022-07-10T13:25:41;23.70;58.70
37560;DHT22;23398;50.928;7.084;2022-07-10T13:28:08;23.80;58.40
37560;DHT22;23398;50.928;7.084;2022-07-10T13:30:35;24.10;58.40
37560;DHT22;23398;50.928;7.084;2022-07-10T13:33:01;23.90;57.60
37560;DHT22;23398;50.928;7.084;2022-07-10T13:35:30;23.80;57.70
37560;DHT22;23398;50.928;7.084;2022-07-10T13:37:57;23.80;58.40
37560;DHT22;23398;50.928;7.084;2022-07-10T13:40:27;23.60;59.00
37560;DHT22;23398;50.928;7.084;2022-07-10T13:42:53;23.50;59.20
37560;DHT22;23398;50.928;7.084;2022-07-10T13:45:19;23.40;59.10
37560;DHT22;23398;50.928;7.084;2022-07-10T13:47:45;23.30;59.60
37560;DHT22;23398;50.928;7.084;2022-07-10T13:50:11;23.30;60.30
37560;DHT22;23398;50.928;7.084;2022-07-10T13:52:36;23.30;60.00
37560;DHT22;23398;50.928;7.084;2022-07-10T13:55:02;23.20;60.40
37560;DHT22;23398;50.928;7.084;2022-07-10T13:57:30;23.20;60.40
37560;DHT22;23398;50.928;7.084;2022-07-10T13:59:56;23.30;60.40
37560;DHT22;23398;50.928;7.084;2022-07-10T14:02:21;23.40;60.50
37560;DHT22;23398;50.928;7.084;2022-07-10T14:04:47;23.50;60.50
37560;DHT22;23398;50.928;7.084;2022-07-10T14:07:13;23.60;60.80
37560;DHT22;23398;50.928;7.084;2022-07-10T14:09:38;24.10;60.50
37560;DHT22;23398;50.928;7.084;2022-07-10T14:12:05;23.90;60.60
37560;DHT22;23398;50.928;7.084;2022-07-10T14:14:31;24.10;60.30
37560;DHT22;23398;50.928;7.084;2022-07-10T14:16:56;24.30;59.70
37560;DHT22;23398;50.928;7.084;2022-07-10T14:19:22;24.50;59.10
37560;DHT22;23398;50.928;7.084;2022-07-10T14:21:47;24.80;58.40
37560;DHT22;23398;50.928;7.084;2022-07-10T14:24:14;25.00;58.00
37560;DHT22;23398;50.928;7.084;2022-07-10T14:26:40;25.20;58.20
37560;DHT22;23398;50.928;7.084;2022-07-10T14:29:05;25.40;58.20
37560;DHT22;23398;50.928;7.084;2022-07-10T14:31:31;25.60;57.70
37560;DHT22;23398;50.928;7.084;2022-07-10T14:33:57;25.80;57.10
37560;DHT22;23398;50.928;7.084;2022-07-10T14:36:23;26.00;56.40
37560;DHT22;23398;50.928;7.084;2022-07-10T14:38:53;26.20;56.20
37560;DHT22;23398;50.928;7.084;2022-07-10T14:41:19;26.30;55.40
37560;DHT22;23398;50.928;7.084;2022-07-10T14:43:45;26.30;55.60
37560;DHT22;23398;50.928;7.084;2022-07-10T14:46:10;26.30;55.10
37560;DHT22;23398;50.928;7.084;2022-07-10T14:48:36;26.40;55.00
37560;DHT22;23398;50.928;7.084;2022-07-10T14:51:02;26.60;55.00
37560;DHT22;23398;50.928;7.084;2022-07-10T14:53:28;26.60;54.50
37560;DHT22;23398;50.928;7.084;2022-07-10T14:55:54;26.70;53.70
37560;DHT22;23398;50.928;7.084;2022-07-10T14:58:20;26.80;53.40
37560;DHT22;23398;50.928;7.084;2022-07-10T15:00:45;26.90;53.60
37560;DHT22;23398;50.928;7.084;2022-07-10T15:03:11;27.00;53.00
37560;DHT22;23398;50.928;7.084;2022-07-10T15:05:36;27.00;52.90
37560;DHT22;23398;50.928;7.084;2022-07-10T15:08:02;27.00;52.80
37560;DHT22;23398;50.928;7.084;2022-07-10T15:10:29;27.00;52.30
37560;DHT22;23398;50.928;7.084;2022-07-10T15:12:55;27.10;52.40
37560;DHT22;23398;50.928;7.084;2022-07-10T15:15:20;27.00;52.20
37560;DHT22;23398;50.928;7.084;2022-07-10T15:17:46;27.00;52.00
37560;DHT22;23398;50.928;7.084;2022-07-10T15:20:12;26.90;51.80
37560;DHT22;23398;50.928;7.084;2022-07-10T15:22:38;26.80;51.70
37560;DHT22;23398;50.928;7.084;2022-07-10T15:25:04;26.70;51.80
37560;DHT22;23398;50.928;7.084;2022-07-10T15:27:30;26.50;51.80
37560;DHT22;23398;50.928;7.084;2022-07-10T15:29:56;26.40;52.10
37560;DHT22;23398;50.928;7.084;2022-07-10T15:32:22;26.20;51.90
37560;DHT22;23398;50.928;7.084;2022-07-10T15:34:48;26.00;52.30
37560;DHT22;23398;50.928;7.084;2022-07-10T15:37:15;25.90;52.70
37560;DHT22;23398;50.928;7.084;2022-07-10T15:39:41;25.80;52.70
37560;DHT22;23398;50.928;7.084;2022-07-10T15:42:07;25.70;52.80
37560;DHT22;23398;50.928;7.084;2022-07-10T15:44:33;25.60;53.20
37560;DHT22;23398;50.928;7.084;2022-07-10T15:46:59;25.60;53.40
37560;DHT22;23398;50.928;7.084;2022-07-10T15:49:24;25.40;54.10
37560;DHT22;23398;50.928;7.084;2022-07-10T15:51:50;25.30;53.90